sensor_id;sensor_type;location;lat;lon;timestamp;temperature;humidity
18712;DHT22;9485;49.386;8.674;2023-04-25T00:03:47;12.70;91.60
18712;DHT22;9485;49.386;8.674;2023-04-25T00:09:08;12.60;91.70
18712;DHT22;9485;49.386;8.674;2023-04-25T00:14:31;12.60;91.80
18712;DHT22;9485;49.386;8.674;2023-04-25T00:19:53;12.50;92.00
18712;DHT22;9485;49.386;8.674;2023-04-25T00:25:14;12.50;92.10
18712;DHT22;9485;49.386;8.674;2023-04-25T00:30:36;12.50;92.20
18712;DHT22;9485;49.386;8.674;2023-04-25T00:35:56;12.50;92.40
18712;DHT22;9485;49.386;8.674;2023-04-25T00:41:17;12.50;92.40
18712;DHT22;9485;49.386;8.674;2023-04-25T00:46:40;12.50;92.50
18712;DHT22;9485;49.386;8.674;2023-04-25T00:52:01;12.50;92.50
18712;DHT22;9485;49.386;8.674;2023-04-25T00:57:22;12.50;92.70
18712;DHT22;9485;49.386;8.674;2023-04-25T01:02:45;12.50;92.70
18712;DHT22;9485;49.386;8.674;2023-04-25T01:08:07;12.50;92.70
18712;DHT22;9485;49.386;8.674;2023-04-25T01:13:27;12.40;92.80
18712;DHT22;9485;49.386;8.674;2023-04-25T01:18:50;12.40;92.80
18712;DHT22;9485;49.386;8.674;2023-04-25T01:24:13;12.40;92.90
18712;DHT22;9485;49.386;8.674;2023-04-25T01:29:35;12.40;93.00
18712;DHT22;9485;49.386;8.674;2023-04-25T01:34:56;12.40;92.90
18712;DHT22;9485;49.386;8.674;2023-04-25T01:40:18;12.30;93.00
18712;DHT22;9485;49.386;8.674;2023-04-25T01:45:41;12.30;93.00
18712;DHT22;9485;49.386;8.674;2023-04-25T01:51:04;12.30;93.10
18712;DHT22;9485;49.386;8.674;2023-04-25T01:56:30;12.20;93.10
18712;DHT22;9485;49.386;8.674;2023-04-25T02:01:50;12.20;93.00
18712;DHT22;9485;49.386;8.674;2023-04-25T02:07:18;12.20;93.10
18712;DHT22;9485;49.386;8.674;2023-04-25T02:12:46;12.20;93.20
18712;DHT22;9485;49.386;8.674;2023-04-25T02:18:15;12.10;93.10
18712;DHT22;9485;49.386;8.674;2023-04-25T02:23:36;12.10;93.10
18712;DHT22;9485;49.386;8.674;2023-04-25T02:28:58;12.00;93.10
18712;DHT22;9485;49.386;8.674;2023-04-25T02:34:20;12.00;93.30
18712;DHT22;9485;49.386;8.674;2023-04-25T02:39:41;11.90;93.40
18712;DHT22;9485;49.386;8.674;2023-04-25T02:45:03;11.90;93.60
18712;DHT22;9485;49.386;8.674;2023-04-25T02:50:24;11.90;93.60
18712;DHT22;9485;49.386;8.674;2023-04-25T02:55:45;11.80;93.50
18712;DHT22;9485;49.386;8.674;2023-04-25T03:01:07;11.80;93.60
18712;DHT22;9485;49.386;8.674;2023-04-25T03:06:27;11.80;93.70
18712;DHT22;9485;49.386;8.674;2023-04-25T03:11:48;11.70;93.70
18712;DHT22;9485;49.386;8.674;2023-04-25T03:17:09;11.70;94.10
18712;DHT22;9485;49.386;8.674;2023-04-25T03:22:30;11.70;93.90
18712;DHT22;9485;49.386;8.674;2023-04-25T03:27:51;11.60;93.90
18712;DHT22;9485;49.386;8.674;2023-04-25T03:33:13;11.60;93.90
18712;DHT22;9485;49.386;8.674;2023-04-25T03:38:34;11.60;94.00
18712;DHT22;9485;49.386;8.674;2023-04-25T03:43:54;11.60;94.10
18712;DHT22;9485;49.386;8.674;2023-04-25T03:49:17;11.60;94.10
18712;DHT22;9485;49.386;8.674;2023-04-25T03:54:48;11.60;94.10
18712;DHT22;9485;49.386;8.674;2023-04-25T04:00:13;11.60;94.10
18712;DHT22;9485;49.386;8.674;2023-04-25T04:05:36;11.60;94.20
18712;DHT22;9485;49.386;8.674;2023-04-25T04:11:00;11.60;94.20
18712;DHT22;9485;49.386;8.674;2023-04-25T04:16:20;11.50;94.20
18712;DHT22;9485;49.386;8.674;2023-04-25T04:21:42;11.50;94.20
18712;DHT22;9485;49.386;8.674;2023-04-25T04:27:03;11.50;94.40
18712;DHT22;9485;49.386;8.674;2023-04-25T04:32:38;11.50;94.40
18712;DHT22;9485;49.386;8.674;2023-04-25T04:38:00;11.50;94.40
18712;DHT22;9485;49.386;8.674;2023-04-25T04:43:26;11.60;94.40
18712;DHT22;9485;49.386;8.674;2023-04-25T04:49:04;11.60;94.40
18712;DHT22;9485;49.386;8.674;2023-04-25T04:54:56;11.50;94.40
18712;DHT22;9485;49.386;8.674;2023-04-25T05:00:33;11.60;94.60
18712;DHT22;9485;49.386;8.674;2023-04-25T05:06:06;11.60;94.60
18712;DHT22;9485;49.386;8.674;2023-04-25T05:11:44;11.70;94.70
18712;DHT22;9485;49.386;8.674;2023-04-25T05:17:23;11.70;94.70
18712;DHT22;9485;49.386;8.674;2023-04-25T05:23:07;11.80;94.70
18712;DHT22;9485;49.386;8.674;2023-04-25T05:28:48;11.80;94.70
18712;DHT22;9485;49.386;8.674;2023-04-25T05:34:29;11.80;94.70
18712;DHT22;9485;49.386;8.674;2023-04-25T05:39:53;11.80;94.60
18712;DHT22;9485;49.386;8.674;2023-04-25T05:45:45;11.80;94.60
18712;DHT22;9485;49.386;8.674;2023-04-25T05:51:24;11.90;94.70
18712;DHT22;9485;49.386;8.674;2023-04-25T05:57:19;11.90;94.90
18712;DHT22;9485;49.386;8.674;2023-04-25T06:02:43;12.00;95.00
18712;DHT22;9485;49.386;8.674;2023-04-25T06:08:06;12.10;95.00
18712;DHT22;9485;49.386;8.674;2023-04-25T06:13:27;12.10;95.00
18712;DHT22;9485;49.386;8.674;2023-04-25T06:18:50;12.20;95.10
18712;DHT22;9485;49.386;8.674;2023-04-25T06:24:11;12.30;95.10
18712;DHT22;9485;49.386;8.674;2023-04-25T06:29:32;12.30;95.00
18712;DHT22;9485;49.386;8.674;2023-04-25T06:34:55;12.30;94.90
18712;DHT22;9485;49.386;8.674;2023-04-25T06:40:17;12.40;94.90
18712;DHT22;9485;49.386;8.674;2023-04-25T06:45:38;12.40;95.00
18712;DHT22;9485;49.386;8.674;2023-04-25T06:51:03;12.40;95.00
18712;DHT22;9485;49.386;8.674;2023-04-25T06:56:24;12.50;95.10
18712;DHT22;9485;49.386;8.674;2023-04-25T07:01:53;12.60;95.30
18712;DHT22;9485;49.386;8.674;2023-04-25T07:07:19;12.70;95.30
18712;DHT22;9485;49.386;8.674;2023-04-25T07:12:47;12.80;95.20
18712;DHT22;9485;49.386;8.674;2023-04-25T07:18:08;12.80;95.00
18712;DHT22;9485;49.386;8.674;2023-04-25T07:23:30;12.80;94.70
18712;DHT22;9485;49.386;8.674;2023-04-25T07:28:54;12.80;94.70
18712;DHT22;9485;49.386;8.674;2023-04-25T07:34:14;12.80;94.60
18712;DHT22;9485;49.386;8.674;2023-04-25T07:39:38;12.80;94.40
18712;DHT22;9485;49.386;8.674;2023-04-25T07:45:00;12.70;94.30
18712;DHT22;9485;49.386;8.674;2023-04-25T07:50:22;12.70;94.50
18712;DHT22;9485;49.386;8.674;2023-04-25T07:55:45;12.80;94.60
18712;DHT22;9485;49.386;8.674;2023-04-25T08:01:10;12.80;94.60
18712;DHT22;9485;49.386;8.674;2023-04-25T08:06:44;12.90;94.60
18712;DHT22;9485;49.386;8.674;2023-04-25T08:12:11;12.90;94.20
18712;DHT22;9485;49.386;8.674;2023-04-25T08:17:33;12.90;94.10
18712;DHT22;9485;49.386;8.674;2023-04-25T08:22:55;12.90;94.20
18712;DHT22;9485;49.386;8.674;2023-04-25T08:28:26;12.90;93.80
18712;DHT22;9485;49.386;8.674;2023-04-25T08:33:48;13.00;94.00
18712;DHT22;9485;49.386;8.674;2023-04-25T08:39:16;13.00;94.30
18712;DHT22;9485;49.386;8.674;2023-04-25T08:44:55;13.20;94.60
18712;DHT22;9485;49.386;8.674;2023-04-25T08:50:23;13.40;94.40
18712;DHT22;9485;49.386;8.674;2023-04-25T08:55:46;13.50;94.50
18712;DHT22;9485;49.386;8.674;2023-04-25T09:01:11;13.90;94.80
18712;DHT22;9485;49.386;8.674;2023-04-25T09:06:43;14.30;94.20
18712;DHT22;9485;49.386;8.674;2023-04-25T09:12:05;14.80;94.10
18712;DHT22;9485;49.386;8.674;2023-04-25T09:17:28;15.10;93.30
18712;DHT22;9485;49.386;8.674;2023-04-25T09:23:01;15.40;92.90
18712;DHT22;9485;49.386;8.674;2023-04-25T09:28:25;15.80;92.40
18712;DHT22;9485;49.386;8.674;2023-04-25T09:33:48;16.40;93.50
18712;DHT22;9485;49.386;8.674;2023-04-25T09:39:12;17.10;93.00
18712;DHT22;9485;49.386;8.674;2023-04-25T09:44:46;17.80;92.20
18712;DHT22;9485;49.386;8.674;2023-04-25T09:50:15;18.60;92.90
18712;DHT22;9485;49.386;8.674;2023-04-25T09:55:43;19.30;90.70
18712;DHT22;9485;49.386;8.674;2023-04-25T10:01:07;19.80;90.00
18712;DHT22;9485;49.386;8.674;2023-04-25T10:06:42;20.10;88.90
18712;DHT22;9485;49.386;8.674;2023-04-25T10:12:05;20.20;87.50
18712;DHT22;9485;49.386;8.674;2023-04-25T10:17:27;20.30;87.10
18712;DHT22;9485;49.386;8.674;2023-04-25T10:22:54;20.30;86.00
18712;DHT22;9485;49.386;8.674;2023-04-25T10:28:19;20.30;82.30
18712;DHT22;9485;49.386;8.674;2023-04-25T10:33:43;20.30;86.00
18712;DHT22;9485;49.386;8.674;2023-04-25T10:39:05;20.50;85.00
18712;DHT22;9485;49.386;8.674;2023-04-25T10:44:29;20.50;83.40
18712;DHT22;9485;49.386;8.674;2023-04-25T10:49:51;20.60;85.10
18712;DHT22;9485;49.386;8.674;2023-04-25T10:55:13;20.60;83.60
18712;DHT22;9485;49.386;8.674;2023-04-25T11:00:35;20.60;82.20
18712;DHT22;9485;49.386;8.674;2023-04-25T11:06:00;20.80;83.00
18712;DHT22;9485;49.386;8.674;2023-04-25T11:11:24;21.00;81.60
18712;DHT22;9485;49.386;8.674;2023-04-25T11:16:45;20.80;77.90
18712;DHT22;9485;49.386;8.674;2023-04-25T11:22:06;20.20;77.60
18712;DHT22;9485;49.386;8.674;2023-04-25T11:27:28;19.50;76.60
18712;DHT22;9485;49.386;8.674;2023-04-25T11:32:49;18.80;78.30
18712;DHT22;9485;49.386;8.674;2023-04-25T11:38:11;18.30;80.00
18712;DHT22;9485;49.386;8.674;2023-04-25T11:43:33;18.00;79.90
18712;DHT22;9485;49.386;8.674;2023-04-25T11:48:55;17.60;79.70
18712;DHT22;9485;49.386;8.674;2023-04-25T11:54:17;17.20;80.30
18712;DHT22;9485;49.386;8.674;2023-04-25T11:59:39;16.90;81.40
18712;DHT22;9485;49.386;8.674;2023-04-25T12:05:00;16.70;81.80
18712;DHT22;9485;49.386;8.674;2023-04-25T12:10:21;16.70;83.10
18712;DHT22;9485;49.386;8.674;2023-04-25T12:15:47;16.70;83.70
18712;DHT22;9485;49.386;8.674;2023-04-25T12:21:09;16.90;84.90
18712;DHT22;9485;49.386;8.674;2023-04-25T12:26:48;17.10;85.10
18712;DHT22;9485;49.386;8.674;2023-04-25T12:32:12;17.40;83.20
18712;DHT22;9485;49.386;8.674;2023-04-25T12:37:33;17.60;83.60
18712;DHT22;9485;49.386;8.674;2023-04-25T12:42:54;17.70;84.20
18712;DHT22;9485;49.386;8.674;2023-04-25T12:48:16;17.70;83.50
18712;DHT22;9485;49.386;8.674;2023-04-25T12:53:37;17.60;81.90
18712;DHT22;9485;49.386;8.674;2023-04-25T12:59:00;17.50;83.00
18712;DHT22;9485;49.386;8.674;2023-04-25T13:04:23;17.40;83.80
18712;DHT22;9485;49.386;8.674;2023-04-25T13:09:44;17.40;84.00
18712;DHT22;9485;49.386;8.674;2023-04-25T13:15:06;17.60;85.90
18712;DHT22;9485;49.386;8.674;2023-04-25T13:20:29;17.90;86.20
18712;DHT22;9485;49.386;8.674;2023-04-25T13:25:50;18.20;84.20
18712;DHT22;9485;49.386;8.674;2023-04-25T13:31:11;18.30;83.40
18712;DHT22;9485;49.386;8.674;2023-04-25T13:36:33;18.30;82.20
18712;DHT22;9485;49.386;8.674;2023-04-25T13:41:53;18.10;81.80
18712;DHT22;9485;49.386;8.674;2023-04-25T13:47:15;18.10;83.00
18712;DHT22;9485;49.386;8.674;2023-04-25T13:52:37;18.10;82.50
18712;DHT22;9485;49.386;8.674;2023-04-25T13:57:58;18.00;81.70
18712;DHT22;9485;49.386;8.674;2023-04-25T14:03:19;18.00;82.30
18712;DHT22;9485;49.386;8.674;2023-04-25T14:08:41;17.90;81.60
18712;DHT22;9485;49.386;8.674;2023-04-25T14:14:02;17.80;80.70
18712;DHT22;9485;49.386;8.674;2023-04-25T14:19:23;17.70;81.40
18712;DHT22;9485;49.386;8.674;2023-04-25T14:24:46;17.60;81.70
18712;DHT22;9485;49.386;8.674;2023-04-25T14:30:07;17.60;79.90
18712;DHT22;9485;49.386;8.674;2023-04-25T14:35:31;17.50;81.60
18712;DHT22;9485;49.386;8.674;2023-04-25T14:40:53;17.40;81.30
18712;DHT22;9485;49.386;8.674;2023-04-25T14:46:14;17.30;81.00
18712;DHT22;9485;49.386;8.674;2023-04-25T14:51:35;17.30;81.60
18712;DHT22;9485;49.386;8.674;2023-04-25T14:56:57;17.20;81.60
18712;DHT22;9485;49.386;8.674;2023-04-25T15:02:18;17.20;80.90
18712;DHT22;9485;49.386;8.674;2023-04-25T15:07:39;17.00;79.50
18712;DHT22;9485;49.386;8.674;2023-04-25T15:13:02;16.80;80.10
18712;DHT22;9485;49.386;8.674;2023-04-25T15:18:23;16.60;78.80
18712;DHT22;9485;49.386;8.674;2023-04-25T15:23:44;16.40;79.80
18712;DHT22;9485;49.386;8.674;2023-04-25T15:29:07;16.40;81.40
18712;DHT22;9485;49.386;8.674;2023-04-25T15:34:28;16.40;80.60
18712;DHT22;9485;49.386;8.674;2023-04-25T15:40:00;16.30;81.00
18712;DHT22;9485;49.386;8.674;2023-04-25T15:45:27;16.30;79.80
18712;DHT22;9485;49.386;8.674;2023-04-25T15:50:48;16.30;80.90
18712;DHT22;9485;49.386;8.674;2023-04-25T15:56:08;16.30;81.60
18712;DHT22;9485;49.386;8.674;2023-04-25T16:01:30;16.30;81.00
18712;DHT22;9485;49.386;8.674;2023-04-25T16:06:53;16.30;80.60
18712;DHT22;9485;49.386;8.674;2023-04-25T16:12:14;16.30;80.30
18712;DHT22;9485;49.386;8.674;2023-04-25T16:17:37;16.20;80.20
18712;DHT22;9485;49.386;8.674;2023-04-25T16:22:58;16.10;79.70
18712;DHT22;9485;49.386;8.674;2023-04-25T16:28:19;16.00;80.50
18712;DHT22;9485;49.386;8.674;2023-04-25T16:33:41;16.00;80.40
18712;DHT22;9485;49.386;8.674;2023-04-25T16:39:02;15.80;79.60
18712;DHT22;9485;49.386;8.674;2023-04-25T16:44:26;15.70;80.30
18712;DHT22;9485;49.386;8.674;2023-04-25T16:49:48;15.60;80.10
18712;DHT22;9485;49.386;8.674;2023-04-25T16:55:10;15.50;79.80
18712;DHT22;9485;49.386;8.674;2023-04-25T17:00:30;15.40;80.00
18712;DHT22;9485;49.386;8.674;2023-04-25T17:05:55;15.30;80.60
18712;DHT22;9485;49.386;8.674;2023-04-25T17:11:18;15.10;80.40
18712;DHT22;9485;49.386;8.674;2023-04-25T17:16:39;15.10;81.10
18712;DHT22;9485;49.386;8.674;2023-04-25T17:22:01;15.00;81.50
18712;DHT22;9485;49.386;8.674;2023-04-25T17:27:22;15.00;81.30
18712;DHT22;9485;49.386;8.674;2023-04-25T17:32:43;14.80;80.90
18712;DHT22;9485;49.386;8.674;2023-04-25T17:38:05;14.80;81.00
18712;DHT22;9485;49.386;8.674;2023-04-25T17:43:27;14.70;81.60
18712;DHT22;9485;49.386;8.674;2023-04-25T17:48:48;14.70;81.50
18712;DHT22;9485;49.386;8.674;2023-04-25T17:54:10;14.60;81.80
18712;DHT22;9485;49.386;8.674;2023-04-25T17:59:31;14.50;81.60
18712;DHT22;9485;49.386;8.674;2023-04-25T18:04:52;14.50;82.10
18712;DHT22;9485;49.386;8.674;2023-04-25T18:10:15;14.30;81.90
18712;DHT22;9485;49.386;8.674;2023-04-25T18:15:35;14.30;81.60
18712;DHT22;9485;49.386;8.674;2023-04-25T18:20:57;14.20;81.90
18712;DHT22;9485;49.386;8.674;2023-04-25T18:26:19;14.10;81.80
18712;DHT22;9485;49.386;8.674;2023-04-25T18:31:40;14.00;81.40
18712;DHT22;9485;49.386;8.674;2023-04-25T18:37:02;13.90;81.60
18712;DHT22;9485;49.386;8.674;2023-04-25T18:42:23;13.80;82.20
18712;DHT22;9485;49.386;8.674;2023-04-25T18:47:44;13.70;82.20
18712;DHT22;9485;49.386;8.674;2023-04-25T18:53:05;13.70;82.60
18712;DHT22;9485;49.386;8.674;2023-04-25T18:58:27;13.60;82.50
18712;DHT22;9485;49.386;8.674;2023-04-25T19:03:48;13.50;82.20
18712;DHT22;9485;49.386;8.674;2023-04-25T19:09:13;13.50;82.70
18712;DHT22;9485;49.386;8.674;2023-04-25T19:14:35;13.40;82.70
18712;DHT22;9485;49.386;8.674;2023-04-25T19:19:56;13.30;82.50
18712;DHT22;9485;49.386;8.674;2023-04-25T19:25:17;13.30;82.70
18712;DHT22;9485;49.386;8.674;2023-04-25T19:30:39;13.10;82.40
18712;DHT22;9485;49.386;8.674;2023-04-25T19:35:59;13.00;82.20
18712;DHT22;9485;49.386;8.674;2023-04-25T19:41:20;12.90;82.70
18712;DHT22;9485;49.386;8.674;2023-04-25T19:46:42;12.80;83.10
18712;DHT22;9485;49.386;8.674;2023-04-25T19:52:04;12.70;82.90
18712;DHT22;9485;49.386;8.674;2023-04-25T19:57:25;12.60;83.40
18712;DHT22;9485;49.386;8.674;2023-04-25T20:02:51;12.50;83.70
18712;DHT22;9485;49.386;8.674;2023-04-25T20:08:11;12.40;83.90
18712;DHT22;9485;49.386;8.674;2023-04-25T20:13:32;12.40;84.50
18712;DHT22;9485;49.386;8.674;2023-04-25T20:18:54;12.40;84.80
18712;DHT22;9485;49.386;8.674;2023-04-25T20:24:15;12.40;84.60
18712;DHT22;9485;49.386;8.674;2023-04-25T20:29:36;12.30;84.70
18712;DHT22;9485;49.386;8.674;2023-04-25T20:34:58;12.30;84.70
18712;DHT22;9485;49.386;8.674;2023-04-25T20:40:19;12.20;84.60
18712;DHT22;9485;49.386;8.674;2023-04-25T20:45:39;12.20;84.90
18712;DHT22;9485;49.386;8.674;2023-04-25T20:51:01;12.10;84.80
18712;DHT22;9485;49.386;8.674;2023-04-25T20:56:25;12.00;84.90
18712;DHT22;9485;49.386;8.674;2023-04-25T21:01:46;11.90;85.10
18712;DHT22;9485;49.386;8.674;2023-04-25T21:07:08;11.80;85.30
18712;DHT22;9485;49.386;8.674;2023-04-25T21:12:30;11.70;85.60
18712;DHT22;9485;49.386;8.674;2023-04-25T21:17:51;11.60;85.70
18712;DHT22;9485;49.386;8.674;2023-04-25T21:23:13;11.40;85.80
18712;DHT22;9485;49.386;8.674;2023-04-25T21:28:35;11.30;86.30
18712;DHT22;9485;49.386;8.674;2023-04-25T21:33:55;11.10;86.80
18712;DHT22;9485;49.386;8.674;2023-04-25T21:39:17;11.10;87.30
18712;DHT22;9485;49.386;8.674;2023-04-25T21:44:38;11.00;87.60
18712;DHT22;9485;49.386;8.674;2023-04-25T21:49:59;11.00;87.90
18712;DHT22;9485;49.386;8.674;2023-04-25T21:55:21;10.90;87.90
18712;DHT22;9485;49.386;8.674;2023-04-25T22:00:42;10.80;87.80
18712;DHT22;9485;49.386;8.674;2023-04-25T22:06:02;10.70;87.90
18712;DHT22;9485;49.386;8.674;2023-04-25T22:11:24;10.60;87.90
18712;DHT22;9485;49.386;8.674;2023-04-25T22:16:46;10.50;88.20
18712;DHT22;9485;49.386;8.674;2023-04-25T22:22:07;10.40;88.40
18712;DHT22;9485;49.386;8.674;2023-04-25T22:27:29;10.40;88.90
18712;DHT22;9485;49.386;8.674;2023-04-25T22:32:50;10.40;89.20
18712;DHT22;9485;49.386;8.674;2023-04-25T22:38:11;10.30;89.60
18712;DHT22;9485;49.386;8.674;2023-04-25T22:43:33;10.30;89.90
18712;DHT22;9485;49.386;8.674;2023-04-25T22:48:53;10.40;90.00
18712;DHT22;9485;49.386;8.674;2023-04-25T22:54:13;10.40;90.10
18712;DHT22;9485;49.386;8.674;2023-04-25T22:59:35;10.40;90.10
18712;DHT22;9485;49.386;8.674;2023-04-25T23:04:56;10.30;90.00
18712;DHT22;9485;49.386;8.674;2023-04-25T23:10:18;10.30;90.00
18712;DHT22;9485;49.386;8.674;2023-04-25T23:15:40;10.20;90.00
18712;DHT22;9485;49.386;8.674;2023-04-25T23:21:00;10.20;89.90
18712;DHT22;9485;49.386;8.674;2023-04-25T23:26:22;10.10;89.80
18712;DHT22;9485;49.386;8.674;2023-04-25T23:31:44;10.00;89.80
18712;DHT22;9485;49.386;8.674;2023-04-25T23:37:05;9.90;89.70
18712;DHT22;9485;49.386;8.674;2023-04-25T23:42:26;9.80;89.90
18712;DHT22;9485;49.386;8.674;2023-04-25T23:47:47;9.70;89.90
18712;DHT22;9485;49.386;8.674;2023-04-25T23:53:08;9.60;90.00
18712;DHT22;9485;49.386;8.674;2023-04-25T23:58:29;9.50;90.00
